Time;durP1;ratioP1;P1;durP2;ratioP2;P2;SDS_P1;SDS_P2;PMS_P1;PMS_P2;Temp;Humidity;BMP_temperature;BMP_pressure;BME280_temperature;BME280_humidity;BME280_pressure;Samples;Min_cycle;Max_cycle;Signal;HPM_P1;HPM_P2
2023/08/26 00:02:08;;;;;;;;;22.80;19.20;;;;;19.56;77.52;99148.25;5097878;28;8829;-60
2023/08/26 00:04:36;;;;;;;;;30.80;24.80;;;;;19.58;77.14;99148.88;5098402;28;8826;-60
2023/08/26 00:07:04;;;;;;;;;28.20;23.40;;;;;19.57;77.04;99144.50;5097519;28;8818;-60
2023/08/26 00:09:32;;;;;;;;;25.40;24.40;;;;;19.56;77.39;99153.63;5098224;28;8826;-60
2023/08/26 00:12:00;;;;;;;;;23.60;22.00;;;;;19.55;77.12;99151.13;5097506;28;9647;-60
2023/08/26 00:14:27;;;;;;;;;25.80;24.80;;;;;19.55;77.55;99164.63;5098478;28;8956;-60
2023/08/26 00:16:55;;;;;;;;;21.60;21.20;;;;;19.55;76.93;99154.69;5097000;28;9596;-61
2023/08/26 00:19:23;;;;;;;;;20.20;18.40;;;;;19.57;77.44;99155.31;5098164;28;8818;-60
2023/08/26 00:21:50;;;;;;;;;26.60;25.80;;;;;19.60;77.39;99154.94;5098228;28;8822;-60
2023/08/26 00:24:19;;;;;;;;;29.60;25.20;;;;;19.63;77.00;99146.41;5098530;28;8850;-60
2023/08/26 00:26:46;;;;;;;;;27.20;25.00;;;;;19.67;76.91;99150.41;5097586;28;8802;-60
2023/08/26 00:29:14;;;;;;;;;21.60;21.40;;;;;19.70;77.14;99147.28;5098345;28;9505;-60
2023/08/26 00:31:42;;;;;;;;;27.40;25.00;;;;;19.73;76.58;99137.97;5097415;28;8844;-60
2023/08/26 00:34:09;;;;;;;;;30.20;28.20;;;;;19.74;76.74;99143.16;5097910;28;8830;-60
2023/08/26 00:36:37;;;;;;;;;28.20;27.00;;;;;19.76;76.48;99137.53;5097638;28;8818;-60
2023/08/26 00:39:05;;;;;;;;;31.20;28.20;;;;;19.77;76.76;99142.75;5097489;28;8814;-59
2023/08/26 00:41:33;;;;;;;;;29.80;26.60;;;;;19.78;76.39;99149.81;5098261;28;8841;-60
2023/08/26 00:44:00;;;;;;;;;27.80;25.80;;;;;19.81;76.68;99151.31;5097761;28;8868;-60
2023/08/26 00:46:28;;;;;;;;;22.20;21.60;;;;;19.80;76.60;99152.34;5097219;28;8870;-60
2023/08/26 00:48:55;;;;;;;;;18.60;16.00;;;;;19.77;76.57;99160.81;5096695;28;8810;-60
2023/08/26 00:51:23;;;;;;;;;18.40;17.40;;;;;19.72;76.96;99158.72;5097313;28;8844;-60
2023/08/26 00:53:51;;;;;;;;;24.60;21.60;;;;;19.70;76.72;99173.47;5097147;28;9539;-59
2023/08/26 00:56:18;;;;;;;;;22.00;20.00;;;;;19.64;77.07;99158.06;5097974;28;8848;-60
2023/08/26 00:58:46;;;;;;;;;23.00;21.00;;;;;19.57;77.09;99162.59;5097269;28;8849;-60
2023/08/26 01:01:13;;;;;;;;;17.40;16.20;;;;;19.53;76.89;99159.44;5097497;28;8871;-60
2023/08/26 01:03:41;;;;;;;;;19.80;19.40;;;;;19.49;77.17;99163.56;5096586;28;8833;-60
2023/08/26 01:06:11;;;;;;;;;22.60;19.80;;;;;19.47;77.19;99162.94;5097002;28;8838;-60
2023/08/26 01:08:39;;;;;;;;;27.00;26.00;;;;;19.44;77.28;99157.09;5096520;28;8944;-60
2023/08/26 01:11:06;;;;;;;;;25.60;25.20;;;;;19.43;77.14;99158.94;5097474;28;8803;-60
2023/08/26 01:13:34;;;;;;;;;25.40;22.40;;;;;19.42;77.27;99165.38;5096002;28;8818;-60
2023/08/26 01:16:02;;;;;;;;;27.00;19.20;;;;;19.40;76.95;99167.47;5096244;28;8845;-61
2023/08/26 01:18:30;;;;;;;;;24.80;21.20;;;;;19.40;76.92;99175.56;5095950;28;8833;-59
2023/08/26 01:20:57;;;;;;;;;21.40;20.60;;;;;19.39;76.92;99176.59;5096596;28;8834;-60
2023/08/26 01:23:27;;;;;;;;;24.00;19.20;;;;;19.39;77.04;99179.28;5096859;28;8811;-60
2023/08/26 01:25:55;;;;;;;;;25.20;24.20;;;;;19.38;77.10;99182.19;5096485;28;8810;-59
2023/08/26 01:28:23;;;;;;;;;24.00;21.60;;;;;19.37;77.07;99192.16;5096384;28;8806;-59
2023/08/26 01:30:51;;;;;;;;;24.40;23.00;;;;;19.38;76.78;99190.28;5096290;28;9480;-61
2023/08/26 01:33:19;;;;;;;;;23.00;21.00;;;;;19.36;76.90;99189.66;5095197;28;8834;-60
2023/08/26 01:35:46;;;;;;;;;24.00;22.00;;;;;19.36;76.72;99192.34;5095801;28;8832;-60
2023/08/26 01:38:14;;;;;;;;;22.40;20.00;;;;;19.37;76.60;99192.16;5094337;28;8803;-61
2023/08/26 01:40:41;;;;;;;;;24.00;22.80;;;;;19.37;76.67;99202.13;5096160;28;8810;-60
2023/08/26 01:43:09;;;;;;;;;29.40;28.20;;;;;19.36;76.99;99195.88;5096506;28;8934;-61
2023/08/26 01:45:37;;;;;;;;;28.60;26.20;;;;;19.37;76.84;99185.91;5095981;28;9499;-62
2023/08/26 01:48:04;;;;;;;;;28.00;23.40;;;;;19.37;77.03;99185.91;5095639;28;8941;-60
2023/08/26 01:50:32;;;;;;;;;30.60;28.00;;;;;19.37;76.63;99188.63;5095970;28;8957;-60
2023/08/26 01:53:00;;;;;;;;;30.60;27.20;;;;;19.37;76.80;99197.56;5096416;28;8845;-60
2023/08/26 01:55:27;;;;;;;;;36.00;33.20;;;;;19.37;76.53;99196.72;5096460;28;8826;-60
2023/08/26 01:57:55;;;;;;;;;31.80;28.80;;;;;19.35;76.84;99194.19;5095941;28;8832;-60
2023/08/26 02:00:23;;;;;;;;;37.20;28.80;;;;;19.31;76.78;99198.34;5096525;28;8814;-60
2023/08/26 02:02:51;;;;;;;;;39.80;32.00;;;;;19.25;76.83;99195.56;5095858;28;8810;-60
2023/08/26 02:05:18;;;;;;;;;39.75;31.50;;;;;19.14;77.17;99194.22;5095772;28;8834;-59
2023/08/26 02:07:46;;;;;;;;;43.40;39.60;;;;;19.01;77.22;99188.69;5096070;28;9531;-59
2023/08/26 02:10:14;;;;;;;;;49.00;43.00;;;;;18.90;78.14;99191.91;5095620;28;8916;-60
2023/08/26 02:12:42;;;;;;;;;34.60;33.60;;;;;18.81;78.29;99190.38;5095446;28;8849;-60
2023/08/26 02:15:09;;;;;;;;;25.60;21.20;;;;;18.75;77.86;99185.72;5094963;28;8854;-61
2023/08/26 02:17:37;;;;;;;;;36.80;34.40;;;;;18.70;78.24;99184.66;5095635;28;8967;-60
2023/08/26 02:20:07;;;;;;;;;37.20;32.60;;;;;18.65;78.50;99181.69;5094986;28;8798;-60
2023/08/26 02:22:35;;;;;;;;;31.60;25.20;;;;;18.62;78.24;99191.00;5095969;28;9488;-63
2023/08/26 02:25:03;;;;;;;;;33.60;30.20;;;;;18.60;78.71;99194.91;5095812;28;8838;-59
2023/08/26 02:27:31;;;;;;;;;30.20;30.00;;;;;18.59;78.82;99191.38;5095518;28;8814;-60
2023/08/26 02:29:58;;;;;;;;;26.40;26.00;;;;;18.57;78.32;99193.44;5094785;28;8814;-60
2023/08/26 02:32:26;;;;;;;;;15.40;15.40;;;;;18.58;78.43;99191.59;5095642;28;8844;-60
2023/08/26 02:34:54;;;;;;;;;42.40;33.20;;;;;18.59;77.99;99195.94;5095289;28;8864;-60
2023/08/26 02:37:22;;;;;;;;;26.60;23.20;;;;;18.58;77.97;99188.91;5095509;28;8852;-60
2023/08/26 02:39:50;;;;;;;;;29.40;25.40;;;;;18.58;78.52;99191.59;5095666;28;9491;-60
2023/08/26 02:42:17;;;;;;;;;28.20;25.40;;;;;18.58;78.23;99194.28;5095103;28;8821;-61
2023/08/26 02:44:46;;;;;;;;;21.20;18.00;;;;;18.58;78.27;99202.38;5095656;28;8830;-60
2023/08/26 02:47:13;;;;;;;;;31.80;27.40;;;;;18.57;78.25;99201.53;5095991;28;8846;-61
2023/08/26 02:49:41;;;;;;;;;26.80;24.60;;;;;18.57;78.32;99192.59;5095106;28;8818;-61
2023/08/26 02:52:08;;;;;;;;;23.80;21.20;;;;;18.54;78.31;99196.53;5095181;28;8817;-60
2023/08/26 02:54:36;;;;;;;;;21.00;20.20;;;;;18.51;78.16;99194.19;5095786;28;8822;-60
2023/08/26 02:57:05;;;;;;;;;20.60;20.60;;;;;18.47;78.06;99198.31;5095507;28;8818;-60
2023/08/26 02:59:33;;;;;;;;;20.40;15.20;;;;;18.44;78.11;99206.75;5094700;28;8831;-60
2023/08/26 03:02:00;;;;;;;;;18.20;18.20;;;;;18.40;78.07;99212.72;5094931;28;8848;-59
2023/08/26 03:04:28;;;;;;;;;18.00;16.00;;;;;18.37;78.34;99213.13;5095331;28;8829;-59
2023/08/26 03:06:55;;;;;;;;;19.00;16.00;;;;;18.36;78.42;99217.66;5095256;28;8836;-59
2023/08/26 03:09:24;;;;;;;;;22.40;20.60;;;;;18.35;78.36;99232.16;5094670;28;8822;-60
2023/08/26 03:11:51;;;;;;;;;17.20;12.80;;;;;18.32;78.18;99242.50;5095037;28;8856;-62
2023/08/26 03:14:19;;;;;;;;;16.40;14.20;;;;;18.25;78.05;99237.00;5095427;28;8822;-60
2023/08/26 03:16:46;;;;;;;;;10.60;9.40;;;;;18.13;78.58;99245.75;5095531;28;9550;-59
2023/08/26 03:19:14;;;;;;;;;9.00;8.60;;;;;18.00;78.66;99254.47;5094661;28;8814;-60
2023/08/26 03:21:41;;;;;;;;;7.00;7.00;;;;;17.87;79.08;99262.38;5094998;28;8830;-58
2023/08/26 03:24:09;;;;;;;;;9.20;9.00;;;;;17.73;78.81;99267.72;5094880;28;8822;-59
2023/08/26 03:26:36;;;;;;;;;6.40;6.00;;;;;17.57;79.57;99279.50;5097897;28;8810;-60
2023/08/26 03:29:04;;;;;;;;;9.80;9.60;;;;;17.42;79.52;99281.31;5098832;28;8802;-60
2023/08/26 03:31:32;;;;;;;;;9.40;6.60;;;;;17.26;79.58;99289.50;5099973;28;8830;-61
2023/08/26 03:34:00;;;;;;;;;8.20;6.80;;;;;17.12;79.79;99301.03;5099182;28;8864;-59
2023/08/26 03:36:28;;;;;;;;;8.20;8.20;;;;;16.96;79.57;99290.41;5099325;28;9529;-59
2023/08/26 03:38:56;;;;;;;;;7.00;6.00;;;;;16.84;80.05;99302.56;5098396;28;8814;-60
2023/08/26 03:41:24;;;;;;;;;7.00;6.00;;;;;16.73;80.17;99291.38;5099601;28;8818;-59
2023/08/26 03:43:52;;;;;;;;;6.40;5.60;;;;;16.62;80.08;99300.66;5099148;28;8842;-59
2023/08/26 03:46:20;;;;;;;;;6.20;6.20;;;;;16.52;80.51;99300.06;5098405;28;8858;-59
2023/08/26 03:48:48;;;;;;;;;4.00;4.00;;;;;16.42;80.17;99306.66;5098751;28;8818;-58
2023/08/26 03:51:16;;;;;;;;;6.60;6.00;;;;;16.33;80.51;99300.44;5098404;28;8832;-59
2023/08/26 03:53:43;;;;;;;;;4.20;3.80;;;;;16.25;79.95;99303.16;5098899;28;8848;-59
2023/08/26 03:56:11;;;;;;;;;4.00;4.00;;;;;16.17;80.32;99293.44;5099015;28;8875;-61
2023/08/26 03:58:39;;;;;;;;;5.60;4.00;;;;;16.10;79.90;99297.81;5098156;28;8810;-59
2023/08/26 04:01:06;;;;;;;;;5.20;5.20;;;;;16.02;80.51;99300.53;5098557;28;8818;-59
2023/08/26 04:03:34;;;;;;;;;6.50;6.00;;;;;15.92;80.26;99307.97;5098285;28;8937;-61
2023/08/26 04:06:02;;;;;;;;;6.25;6.00;;;;;15.84;80.73;99307.97;5098506;28;8838;-59
2023/08/26 04:08:30;;;;;;;;;7.00;6.00;;;;;15.75;80.88;99312.50;5097979;28;8845;-59
2023/08/26 04:10:57;;;;;;;;;7.00;6.60;;;;;15.68;80.53;99303.47;5098418;28;8886;-59
2023/08/26 04:13:25;;;;;;;;;7.00;7.00;;;;;15.62;80.89;99314.88;5097498;28;8953;-58
2023/08/26 04:15:54;;;;;;;;;5.60;4.00;;;;;15.55;81.18;99310.34;5097665;28;8968;-59
2023/08/26 04:18:22;;;;;;;;;6.00;5.00;;;;;15.50;80.95;99323.44;5098178;28;9643;-59
2023/08/26 04:20:49;;;;;;;;;6.00;6.00;;;;;15.44;80.36;99329.47;5097548;28;8821;-59
2023/08/26 04:23:17;;;;;;;;;6.50;5.50;;;;;15.39;80.68;99332.66;5098133;28;8806;-60
2023/08/26 04:25:45;;;;;;;;;3.40;2.60;;;;;15.33;81.13;99324.44;5097904;28;8814;-59
2023/08/26 04:28:14;;;;;;;;;5.00;4.00;;;;;15.28;80.76;99332.97;5097840;28;8944;-58
2023/08/26 04:30:41;;;;;;;;;4.00;4.00;;;;;15.24;80.88;99334.28;5097368;28;8838;-58
2023/08/26 04:33:09;;;;;;;;;4.00;3.25;;;;;15.19;81.06;99344.69;5097734;28;9535;-59
2023/08/26 04:35:37;;;;;;;;;4.50;4.00;;;;;15.16;81.20;99342.31;5096374;28;8834;-59
2023/08/26 04:38:04;;;;;;;;;3.75;3.50;;;;;15.14;80.69;99354.22;5095689;28;8830;-59
2023/08/26 04:40:32;;;;;;;;;3.25;3.25;;;;;15.09;80.68;99354.72;5095399;28;8842;-58
2023/08/26 04:43:03;;;;;;;;;3.00;2.20;;;;;15.06;81.00;99356.88;5097056;28;8850;-59
2023/08/26 04:45:31;;;;;;;;;1.00;1.00;;;;;15.02;80.91;99353.69;5096833;28;8946;-60
2023/08/26 04:47:59;;;;;;;;;2.20;2.20;;;;;15.01;80.72;99359.25;5096635;28;8818;-59
2023/08/26 04:50:27;;;;;;;;;3.00;3.00;;;;;15.00;80.83;99368.25;5097890;28;8803;-59
2023/08/26 04:52:55;;;;;;;;;3.00;3.00;;;;;14.99;80.86;99366.59;5097049;28;8856;-59
2023/08/26 04:55:22;;;;;;;;;2.50;1.00;;;;;14.98;80.32;99370.28;5097644;28;8830;-59
2023/08/26 04:57:50;;;;;;;;;2.50;2.50;;;;;14.99;80.67;99377.31;5097289;28;8802;-59
2023/08/26 05:00:18;;;;;;;;;3.00;3.00;;;;;15.00;80.10;99373.63;5097184;28;8818;-59
2023/08/26 05:02:45;;;;;;;;;0.50;0.50;;;;;15.00;79.91;99376.31;5097238;28;8956;-58
2023/08/26 05:05:13;;;;;;;;;3.00;1.50;;;;;15.02;80.15;99379.69;5096970;28;8853;-59
2023/08/26 05:07:41;;;;;;;;;2.50;2.50;;;;;15.05;79.85;99382.03;5096603;28;8803;-59
2023/08/26 05:10:08;;;;;;;;;1.00;1.00;;;;;15.06;80.20;99381.03;5096813;28;8976;-60
2023/08/26 05:12:36;;;;;;;;;2.00;2.00;;;;;15.06;80.37;99373.84;5097007;28;8851;-60
2023/08/26 05:15:04;;;;;;;;;2.00;2.00;;;;;15.08;79.97;99382.53;5096859;28;8890;-61
2023/08/26 05:17:31;;;;;;;;;1.00;1.00;;;;;15.11;79.41;99381.38;5096530;28;8846;-59
2023/08/26 05:19:59;;;;;;;;;2.50;2.50;;;;;15.13;79.91;99380.22;5096262;28;8849;-59
2023/08/26 05:22:27;;;;;;;;;3.80;2.60;;;;;15.17;79.00;99380.72;5096676;28;8814;-61
2023/08/26 05:24:54;;;;;;;;;0.00;0.00;;;;;15.20;79.13;99369.66;5097309;28;8845;-58
2023/08/26 05:27:23;;;;;;;;;1.00;1.00;;;;;15.21;78.64;99374.88;5096120;28;8845;-59
2023/08/26 05:29:51;;;;;;;;;1.50;1.50;;;;;15.26;78.54;99375.19;5096740;28;9534;-59
2023/08/26 05:32:19;;;;;;;;;1.00;1.00;;;;;15.28;78.94;99373.22;5096695;28;8849;-59
2023/08/26 05:34:46;;;;;;;;;3.00;2.50;;;;;15.31;78.29;99370.22;5096758;28;8845;-60
2023/08/26 05:37:14;;;;;;;;;2.50;2.50;;;;;15.36;78.06;99380.44;5096314;28;8830;-61
2023/08/26 05:39:42;;;;;;;;;1.00;1.00;;;;;15.40;78.11;99379.13;5096870;28;8837;-59
2023/08/26 05:42:09;;;;;;;;;0.00;0.00;;;;;15.44;78.15;99383.13;5097126;28;8840;-59
2023/08/26 05:44:37;;;;;;;;;0.80;0.40;;;;;15.48;78.17;99384.50;5096300;28;8826;-59
2023/08/26 05:47:05;;;;;;;;;3.00;1.40;;;;;15.52;77.97;99380.47;5095953;28;8850;-59
2023/08/26 05:49:32;;;;;;;;;3.00;3.00;;;;;15.56;77.42;99384.50;5094898;28;8822;-59
2023/08/26 05:52:00;;;;;;;;;3.00;3.00;;;;;15.59;77.47;99376.09;5096131;28;8847;-59
2023/08/26 05:54:28;;;;;;;;;3.00;3.00;;;;;15.64;77.46;99382.63;5095611;28;8834;-61
2023/08/26 05:56:55;;;;;;;;;3.00;3.00;;;;;15.69;77.60;99379.47;5095484;28;8818;-60
2023/08/26 05:59:23;;;;;;;;;3.00;3.00;;;;;15.74;77.09;99374.41;5095386;28;8927;-60
2023/08/26 06:01:51;;;;;;;;;4.80;3.60;;;;;15.81;76.88;99387.03;5094869;28;8860;-59
2023/08/26 06:04:18;;;;;;;;;3.60;3.40;;;;;15.87;76.32;99385.50;5095229;28;8833;-58
2023/08/26 06:06:46;;;;;;;;;3.00;2.60;;;;;15.93;76.64;99390.19;5094552;28;8818;-59
2023/08/26 06:09:14;;;;;;;;;2.60;2.60;;;;;15.99;76.79;99386.84;5094837;28;8833;-58
2023/08/26 06:11:41;;;;;;;;;2.20;2.20;;;;;16.06;76.66;99391.34;5095271;28;8830;-61
2023/08/26 06:14:09;;;;;;;;;1.00;1.00;;;;;16.14;76.12;99388.66;5095134;28;8822;-59
2023/08/26 06:16:37;;;;;;;;;1.00;1.00;;;;;16.18;75.89;99388.13;5094659;28;8830;-61
2023/08/26 06:19:05;;;;;;;;;2.60;2.60;;;;;16.23;75.93;99387.63;5094356;28;8838;-60
2023/08/26 06:21:32;;;;;;;;;1.00;1.00;;;;;16.27;75.79;99387.09;5095170;28;8844;-59
2023/08/26 06:24:00;;;;;;;;;0.00;0.00;;;;;16.33;75.37;99397.16;5095312;28;8846;-59
2023/08/26 06:26:28;;;;;;;;;1.00;1.00;;;;;16.38;75.04;99401.25;5094800;28;8830;-60
2023/08/26 06:28:55;;;;;;;;;3.00;2.60;;;;;16.41;75.42;99391.00;5094673;28;8826;-58
2023/08/26 06:31:23;;;;;;;;;0.20;0.20;;;;;16.46;75.41;99393.97;5095068;28;8817;-59
2023/08/26 06:33:50;;;;;;;;;1.00;1.00;;;;;16.52;75.07;99399.53;5093507;28;9507;-60
2023/08/26 06:36:18;;;;;;;;;0.80;0.80;;;;;16.59;74.60;99392.44;5093983;28;8859;-62
2023/08/26 06:38:46;;;;;;;;;1.00;1.00;;;;;16.63;74.75;99377.63;5093396;28;8830;-61
2023/08/26 06:41:14;;;;;;;;;1.80;1.80;;;;;16.70;74.38;99381.28;5093539;28;8841;-59
2023/08/26 06:43:41;;;;;;;;;1.00;1.00;;;;;16.76;74.62;99385.97;5094184;28;8848;-58
2023/08/26 06:46:09;;;;;;;;;1.00;1.00;;;;;16.81;74.15;99377.38;5093850;28;8856;-59
2023/08/26 06:48:37;;;;;;;;;0.00;0.00;;;;;16.87;74.19;99382.06;5094406;28;9533;-58
2023/08/26 06:51:05;;;;;;;;;0.00;0.00;;;;;16.92;74.04;99380.53;5094614;28;8826;-59
2023/08/26 06:53:32;;;;;;;;;0.60;0.60;;;;;16.98;73.36;99379.81;5094704;28;9475;-58
2023/08/26 06:56:00;;;;;;;;;1.00;1.00;;;;;17.05;73.31;99382.63;5095101;28;8828;-59
2023/08/26 06:58:28;;;;;;;;;0.40;0.40;;;;;17.14;72.98;99382.41;5093440;28;8826;-60
2023/08/26 07:00:56;;;;;;;;;0.00;0.00;;;;;17.21;73.22;99378.00;5093428;28;8840;-61
2023/08/26 07:03:25;;;;;;;;;1.00;1.00;;;;;17.27;73.14;99390.75;5092642;28;8841;-59
2023/08/26 07:05:53;;;;;;;;;0.40;0.40;;;;;17.35;72.60;99390.72;5092933;28;9483;-62
2023/08/26 07:08:21;;;;;;;;;1.80;1.00;;;;;17.40;72.24;99391.03;5093329;28;9491;-60
2023/08/26 07:10:50;;;;;;;;;3.00;3.00;;;;;17.47;72.19;99389.28;5093562;28;8825;-60
2023/08/26 07:13:17;;;;;;;;;1.00;1.00;;;;;17.57;72.17;99386.38;5094044;28;8833;-59
2023/08/26 07:15:45;;;;;;;;;1.60;1.00;;;;;17.65;71.58;99384.47;5094065;28;8862;-58
2023/08/26 07:18:13;;;;;;;;;1.40;1.40;;;;;17.72;71.89;99382.72;5094638;28;8956;-58
2023/08/26 07:20:41;;;;;;;;;3.00;1.40;;;;;17.79;71.76;99380.97;5093748;28;8911;-59
2023/08/26 07:23:10;;;;;;;;;0.60;0.60;;;;;17.81;71.89;99383.47;5094163;28;8830;-60
2023/08/26 07:25:37;;;;;;;;;0.00;0.00;;;;;17.87;71.19;99394.38;5094266;28;8815;-60
2023/08/26 07:28:05;;;;;;;;;1.00;1.00;;;;;17.93;70.84;99390.13;5093285;28;8856;-61
2023/08/26 07:30:33;;;;;;;;;3.00;1.00;;;;;17.99;70.99;99382.13;5093858;28;8826;-60
2023/08/26 07:33:01;;;;;;;;;1.00;1.00;;;;;18.04;70.84;99385.13;5093050;28;8830;-59
2023/08/26 07:35:29;;;;;;;;;1.00;1.00;;;;;18.05;70.63;99381.41;5093272;28;8833;-59
2023/08/26 07:37:56;;;;;;;;;1.00;1.00;;;;;18.08;70.68;99394.50;5092639;28;8814;-58
2023/08/26 07:40:25;;;;;;;;;1.00;1.00;;;;;18.13;70.26;99386.72;5092764;28;8869;-61
2023/08/26 07:42:53;;;;;;;;;1.00;1.00;;;;;18.15;70.44;99383.84;5093806;28;8826;-61
2023/08/26 07:45:21;;;;;;;;;1.00;1.00;;;;;18.19;69.94;99377.06;5093540;28;8850;-60
2023/08/26 07:47:49;;;;;;;;;0.60;0.00;;;;;18.23;70.34;99381.06;5093354;28;8818;-59
2023/08/26 07:50:19;;;;;;;;;0.40;0.40;;;;;18.32;70.03;99388.94;5094036;28;8802;-61
2023/08/26 07:52:47;;;;;;;;;1.00;1.00;;;;;18.45;69.73;99388.28;5093790;28;8838;-60
2023/08/26 07:55:15;;;;;;;;;0.60;0.60;;;;;18.55;69.34;99376.19;5093848;28;8842;-59
2023/08/26 07:57:43;;;;;;;;;0.80;0.80;;;;;18.63;69.18;99381.50;5092908;28;8899;-58
2023/08/26 08:00:10;;;;;;;;;0.40;0.40;;;;;18.74;68.85;99377.50;5092863;28;8810;-60
2023/08/26 08:02:38;;;;;;;;;1.00;1.00;;;;;18.83;68.79;99374.47;5092421;28;8826;-61
2023/08/26 08:05:06;;;;;;;;;0.00;0.00;;;;;18.92;68.34;99380.63;5092786;28;8848;-59
2023/08/26 08:07:34;;;;;;;;;0.00;0.00;;;;;18.97;68.98;99392.53;5092364;28;8963;-59
2023/08/26 08:10:03;;;;;;;;;0.00;0.00;;;;;18.97;68.78;99381.72;5092411;28;8818;-59
2023/08/26 08:12:31;;;;;;;;;1.00;1.00;;;;;18.95;68.28;99378.38;5093488;28;8844;-60
2023/08/26 08:14:58;;;;;;;;;1.80;1.80;;;;;18.94;68.47;99374.00;5096559;28;8980;-59
2023/08/26 08:17:27;;;;;;;;;1.00;1.00;;;;;18.95;68.36;99382.94;5095883;28;8842;-59
2023/08/26 08:19:55;;;;;;;;;1.00;1.00;;;;;18.92;68.37;99378.78;5096754;28;8842;-59
2023/08/26 08:22:24;;;;;;;;;3.00;2.60;;;;;18.91;67.81;99377.06;5096649;28;8834;-59
2023/08/26 08:24:51;;;;;;;;;0.80;0.80;;;;;18.94;68.29;99379.41;5096461;28;8968;-59
2023/08/26 08:27:20;;;;;;;;;1.80;1.80;;;;;18.98;67.72;99386.09;5095794;28;8818;-61
2023/08/26 08:29:47;;;;;;;;;3.00;3.00;;;;;19.04;67.47;99374.53;5095061;28;8825;-59
2023/08/26 08:32:15;;;;;;;;;0.20;0.20;;;;;19.12;67.55;99382.53;5094688;28;8856;-58
2023/08/26 08:34:43;;;;;;;;;3.00;3.00;;;;;19.15;67.42;99384.88;5094814;28;8910;-60
2023/08/26 08:37:10;;;;;;;;;3.20;2.40;;;;;19.16;66.70;99383.84;5095395;28;8834;-59
2023/08/26 08:39:38;;;;;;;;;1.00;1.00;;;;;19.21;66.77;99386.81;5095032;28;8941;-59
2023/08/26 08:42:07;;;;;;;;;3.00;3.00;;;;;19.27;66.27;99382.53;5095285;28;9359;-61
2023/08/26 08:44:35;;;;;;;;;3.00;2.40;;;;;19.35;66.57;99388.63;5095607;28;8876;-59
2023/08/26 08:47:04;;;;;;;;;3.00;3.00;;;;;19.39;66.17;99391.78;5095723;28;8877;-58
2023/08/26 08:49:32;;;;;;;;;4.00;3.40;;;;;19.40;66.21;99393.47;5094488;28;8981;-59
2023/08/26 08:51:59;;;;;;;;;3.60;3.60;;;;;19.44;66.20;99395.63;5094714;28;8911;-61
2023/08/26 08:54:27;;;;;;;;;6.00;5.20;;;;;19.51;66.08;99398.38;5095125;28;8952;-59
2023/08/26 08:56:55;;;;;;;;;1.00;1.00;;;;;19.60;65.79;99392.66;5095309;28;8869;-59
2023/08/26 08:59:23;;;;;;;;;3.60;2.60;;;;;19.72;65.40;99401.09;5095517;28;8833;-59
2023/08/26 09:01:51;;;;;;;;;3.00;1.60;;;;;19.84;65.21;99405.78;5095936;28;8821;-59
2023/08/26 09:04:18;;;;;;;;;1.00;0.00;;;;;19.92;65.08;99405.66;5095833;28;8856;-60
2023/08/26 09:06:47;;;;;;;;;3.80;3.00;;;;;19.97;64.76;99405.91;5096313;28;8845;-60
2023/08/26 09:09:15;;;;;;;;;2.20;2.20;;;;;20.02;64.44;99405.31;5095310;28;8822;-58
2023/08/26 09:12:01;;;;;;;;;2.20;2.20;;;;;20.04;64.27;99395.97;5096113;28;8910;-59
2023/08/26 09:14:29;;;;;;;;;2.00;2.00;;;;;20.12;63.84;99390.47;5095772;28;8830;-59
2023/08/26 09:17:00;;;;;;;;;3.40;2.20;;;;;20.19;63.83;99395.94;5095099;28;8838;-59
2023/08/26 09:19:27;;;;;;;;;1.80;1.80;;;;;20.31;64.06;99397.06;5093685;28;8818;-59
2023/08/26 09:21:55;;;;;;;;;1.00;0.60;;;;;20.44;63.30;99397.13;5093679;28;8841;-59
2023/08/26 09:24:23;;;;;;;;;2.80;2.20;;;;;20.58;62.74;99398.91;5093002;28;8844;-59
2023/08/26 09:26:51;;;;;;;;;2.00;1.00;;;;;20.70;62.27;99398.13;5094256;28;8834;-61
2023/08/26 09:29:19;;;;;;;;;1.00;1.00;;;;;20.84;62.17;99398.03;5093323;28;8952;-60
2023/08/26 09:31:47;;;;;;;;;2.00;2.00;;;;;20.96;61.75;99393.72;5094094;28;8822;-59
2023/08/26 09:34:15;;;;;;;;;1.00;1.00;;;;;20.96;61.57;99399.16;5094234;28;8845;-58
2023/08/26 09:36:42;;;;;;;;;1.40;1.40;;;;;20.98;61.71;99397.09;5094071;28;8830;-58
2023/08/26 09:39:10;;;;;;;;;1.80;1.80;;;;;21.08;61.10;99399.41;5093736;28;8899;-61
2023/08/26 09:41:38;;;;;;;;;2.00;2.00;;;;;21.10;61.19;99397.34;5094830;28;8842;-60
2023/08/26 09:44:06;;;;;;;;;1.00;1.00;;;;;21.17;61.32;99406.31;5094527;28;9534;-59
2023/08/26 09:46:34;;;;;;;;;1.00;1.00;;;;;21.21;61.23;99396.75;5094507;28;8834;-61
2023/08/26 09:49:03;;;;;;;;;1.00;1.00;;;;;21.31;60.99;99391.78;5093916;28;8817;-60
2023/08/26 09:51:33;;;;;;;;;1.00;1.00;;;;;21.48;60.29;99391.22;5094558;28;8835;-61
2023/08/26 09:54:02;;;;;;;;;0.60;0.60;;;;;21.83;59.90;99394.63;5094544;28;8964;-58
2023/08/26 09:56:30;;;;;;;;;1.00;0.60;;;;;22.14;59.35;99405.72;5093179;28;8830;-59
2023/08/26 09:58:58;;;;;;;;;1.00;1.00;;;;;22.61;58.12;99402.81;5092965;28;8834;-60
2023/08/26 10:01:26;;;;;;;;;1.00;0.20;;;;;23.04;57.66;99399.34;5093557;28;8844;-61
2023/08/26 10:03:53;;;;;;;;;0.00;0.00;;;;;23.45;56.99;99391.63;5092015;28;8838;-58
2023/08/26 10:06:21;;;;;;;;;1.00;1.00;;;;;23.56;55.93;99399.13;5093169;28;8960;-60
2023/08/26 10:08:49;;;;;;;;;1.00;1.00;;;;;23.88;55.95;99395.38;5094104;28;8837;-59
2023/08/26 10:11:17;;;;;;;;;0.00;0.00;;;;;24.20;55.65;99407.88;5094494;28;8995;-59
2023/08/26 10:13:45;;;;;;;;;1.00;1.00;;;;;24.64;55.04;99394.13;5094100;28;8842;-58
2023/08/26 10:16:14;;;;;;;;;0.00;0.00;;;;;25.32;53.73;99403.03;5093611;28;8896;-59
2023/08/26 10:18:53;;;;;;;;;1.00;1.00;;;;;26.06;52.05;99407.00;5094130;28;8826;-59
2023/08/26 10:21:21;;;;;;;;;0.00;0.00;;;;;26.49;51.63;99419.28;5092957;28;8918;-62
2023/08/26 10:23:48;;;;;;;;;1.00;1.00;;;;;26.67;51.51;99411.00;5092436;28;8981;-59
2023/08/26 10:26:16;;;;;;;;;1.00;1.00;;;;;26.93;50.79;99409.69;5092818;28;9603;-61
2023/08/26 10:28:44;;;;;;;;;1.00;1.00;;;;;27.09;50.65;99396.09;5093276;28;8915;-60
2023/08/26 10:31:12;;;;;;;;;0.40;0.40;;;;;26.45;51.77;99418.09;5093099;28;8810;-61
2023/08/26 10:33:40;;;;;;;;;1.00;1.00;;;;;26.15;52.28;99417.34;5094131;28;8826;-59
2023/08/26 10:36:09;;;;;;;;;0.00;0.00;;;;;25.55;53.23;99416.75;5093072;28;8845;-61
2023/08/26 10:38:38;;;;;;;;;1.00;1.00;;;;;25.70;53.08;99413.38;5093706;28;8853;-60
2023/08/26 10:41:06;;;;;;;;;1.00;1.00;;;;;26.29;51.86;99416.06;5093659;28;9576;-59
2023/08/26 10:43:36;;;;;;;;;1.00;1.00;;;;;26.86;50.65;99412.53;5092689;28;8872;-59
2023/08/26 10:46:04;;;;;;;;;1.00;1.00;;;;;27.40;49.64;99412.09;5092759;28;8838;-58
2023/08/26 10:48:32;;;;;;;;;1.40;1.40;;;;;27.87;49.32;99408.13;5092721;28;8838;-60
2023/08/26 10:51:00;;;;;;;;;1.00;1.00;;;;;28.13;48.70;99404.75;5093245;28;9526;-60
2023/08/26 10:53:28;;;;;;;;;0.80;0.80;;;;;28.44;48.07;99406.97;5093105;28;8814;-60
2023/08/26 10:55:56;;;;;;;;;1.00;1.00;;;;;28.73;47.75;99397.53;5093219;28;8842;-62
2023/08/26 10:58:24;;;;;;;;;0.40;0.40;;;;;28.92;47.78;99404.41;5093470;28;8922;-59
2023/08/26 11:00:52;;;;;;;;;1.00;1.00;;;;;29.12;47.17;99396.47;5092765;28;8856;-60
2023/08/26 11:03:20;;;;;;;;;1.00;1.00;;;;;28.97;47.90;99407.25;5093202;28;8830;-59
2023/08/26 11:05:51;;;;;;;;;1.00;1.00;;;;;28.48;48.22;99405.38;5093864;28;8856;-59
2023/08/26 11:08:21;;;;;;;;;1.00;1.00;;;;;28.11;49.44;99403.34;5093232;28;8838;-59
2023/08/26 11:10:49;;;;;;;;;1.40;0.80;;;;;27.58;50.25;99398.25;5093599;28;8822;-61
2023/08/26 11:13:17;;;;;;;;;0.00;0.00;;;;;27.69;50.35;99400.09;5092916;28;8911;-60
2023/08/26 11:15:45;;;;;;;;;1.00;1.00;;;;;28.29;48.66;99394.91;5093876;28;8831;-59
2023/08/26 11:18:15;;;;;;;;;0.00;0.00;;;;;28.85;47.64;99403.78;5093555;28;8845;-59
2023/08/26 11:20:46;;;;;;;;;0.80;0.80;;;;;28.50;48.58;99396.91;5092994;28;8837;-60
2023/08/26 11:23:14;;;;;;;;;0.00;0.00;;;;;29.00;47.74;99403.16;5093101;28;8864;-59
2023/08/26 11:25:42;;;;;;;;;0.40;0.40;;;;;29.38;46.70;99401.22;5093307;28;8872;-59
2023/08/26 11:28:10;;;;;;;;;1.00;1.00;;;;;29.40;46.22;99410.00;5091890;28;8825;-59
2023/08/26 11:30:38;;;;;;;;;1.00;1.00;;;;;29.19;46.82;99402.59;5092074;28;9101;-59
2023/08/26 11:33:06;;;;;;;;;1.00;0.80;;;;;28.50;47.96;99403.22;5091908;28;8830;-59
2023/08/26 11:35:34;;;;;;;;;0.00;0.00;;;;;28.54;48.49;99403.56;5092005;28;8834;-60
2023/08/26 11:38:03;;;;;;;;;0.40;0.40;;;;;28.30;48.32;99408.34;5092070;28;8814;-59
2023/08/26 11:40:30;;;;;;;;;1.40;1.00;;;;;27.69;49.47;99396.53;5092472;28;8985;-60